Oakville, Canada
Current Conditions -  °F | °C
As of 4:00 AM on Monday 22 Dec 2014 (Local Time) from CYYZ Reporting Station
Overcast Overcast  
Wind Chill: 26°   Ceiling: 2300
Heat Index: 32°   Visibility: 15mi
Dew Point: 23°   Wind: 7mph
Humidity: 69%   Direction: 130°SE
Pressure: 30.23"   Gusts: NA
Location:  43.47°N, 79.69°W
Report Text: CYYZ 220900Z 13006KT 15SM OVC023 M00/M05 A3023 RMK SC8 SLP244
Loading
Personal Weather Stations






























Interactive Weather Map New forecast layout! Learn more

10-Day Weather Forecast

Advertisements
Track Severe Weather on mobile